createdAt,value
2023-10-11T00:01:23.993Z,21.60
2023-10-11T00:04:03.371Z,21.70
2023-10-11T00:06:34.988Z,21.60
2023-10-11T00:09:13.834Z,21.60
2023-10-11T00:11:43.042Z,21.60
2023-10-11T00:14:13.457Z,21.60
2023-10-11T00:16:43.354Z,21.60
2023-10-11T00:19:17.267Z,21.60
2023-10-11T00:21:47.174Z,21.60
2023-10-11T00:24:18.728Z,21.60
2023-10-11T00:26:50.846Z,21.60
2023-10-11T00:29:19.777Z,21.60
2023-10-11T00:31:48.643Z,21.60
2023-10-11T00:34:20.127Z,21.60
2023-10-11T00:36:51.060Z,21.60
2023-10-11T00:39:20.183Z,21.60
2023-10-11T00:41:50.739Z,21.60
2023-10-11T00:44:22.238Z,21.60
2023-10-11T00:47:01.304Z,21.60
2023-10-11T00:49:38.287Z,21.60
2023-10-11T00:52:08.846Z,21.60
2023-10-11T00:54:44.341Z,21.50
2023-10-11T00:57:14.689Z,21.60
2023-10-11T00:59:44.412Z,21.60
2023-10-11T01:02:15.992Z,21.60
2023-10-11T01:04:46.283Z,21.60
2023-10-11T01:07:17.817Z,21.50
2023-10-11T01:09:46.661Z,21.60
2023-10-11T01:12:16.053Z,21.50
2023-10-11T01:14:59.284Z,21.50
2023-10-11T01:17:32.921Z,21.50
2023-10-11T01:20:08.028Z,21.50
2023-10-11T01:22:38.617Z,21.50
2023-10-11T01:25:08.590Z,21.50
2023-10-11T01:27:38.245Z,21.50
2023-10-11T01:30:11.111Z,21.50
2023-10-11T01:32:42.855Z,21.50
2023-10-11T01:35:14.784Z,21.50
2023-10-11T01:37:45.117Z,21.50
2023-10-11T01:40:21.971Z,21.50
2023-10-11T01:42:51.489Z,21.50
2023-10-11T01:45:24.407Z,21.50
2023-10-11T01:47:57.622Z,21.50
2023-10-11T01:50:26.937Z,21.50
2023-10-11T01:52:57.499Z,21.50
2023-10-11T01:55:26.195Z,21.50
2023-10-11T01:57:54.842Z,21.50
2023-10-11T02:00:28.996Z,21.50
2023-10-11T02:02:58.110Z,21.50
2023-10-11T02:05:27.805Z,21.40
2023-10-11T02:07:57.936Z,21.40
2023-10-11T02:10:28.044Z,21.40
2023-10-11T02:12:58.414Z,21.40
2023-10-11T02:15:29.910Z,21.40
2023-10-11T02:17:59.870Z,21.40
2023-10-11T02:20:29.306Z,21.40
2023-10-11T02:23:01.192Z,21.40
2023-10-11T02:25:30.398Z,21.40
2023-10-11T02:27:59.931Z,21.40
2023-10-11T02:30:28.781Z,21.40
2023-10-11T02:33:00.315Z,21.30
2023-10-11T02:35:29.342Z,21.30
2023-10-11T02:38:00.623Z,21.40
2023-10-11T02:40:31.349Z,21.40
2023-10-11T02:43:04.694Z,21.30
2023-10-11T02:45:35.233Z,21.30
2023-10-11T02:48:11.810Z,21.30
2023-10-11T02:50:42.720Z,21.30
2023-10-11T02:53:22.587Z,21.30
2023-10-11T02:56:00.238Z,21.30
2023-10-11T02:58:31.279Z,21.30
2023-10-11T03:01:17.078Z,21.30
2023-10-11T03:03:54.126Z,21.30
2023-10-11T03:06:28.694Z,21.30
2023-10-11T03:08:59.044Z,21.30
2023-10-11T03:11:31.287Z,21.30
2023-10-11T03:14:05.511Z,21.30
2023-10-11T03:16:34.753Z,21.20
2023-10-11T03:19:06.384Z,21.20
2023-10-11T03:21:36.257Z,21.20
2023-10-11T03:24:07.758Z,21.20
2023-10-11T03:26:39.743Z,21.20
2023-10-11T03:29:19.645Z,21.20
2023-10-11T03:31:48.884Z,21.20
2023-10-11T03:34:19.366Z,21.20
2023-10-11T03:36:52.347Z,21.20
2023-10-11T03:39:40.796Z,21.20
2023-10-11T03:42:15.948Z,21.20
2023-10-11T03:44:48.132Z,21.20
2023-10-11T03:47:25.155Z,21.20
2023-10-11T03:49:53.976Z,21.20
2023-10-11T03:52:25.288Z,21.10
2023-10-11T03:55:06.194Z,21.10
2023-10-11T03:57:38.263Z,21.10
2023-10-11T04:00:26.248Z,21.10
2023-10-11T04:02:58.723Z,21.10
2023-10-11T04:05:35.184Z,21.10
2023-10-11T04:08:06.526Z,21.10
2023-10-11T04:10:41.647Z,21.10
2023-10-11T04:13:15.741Z,21.10
2023-10-11T04:15:50.517Z,21.10
2023-10-11T04:18:34.438Z,21.10
2023-10-11T04:21:18.223Z,21.00
2023-10-11T04:23:47.876Z,21.00
2023-10-11T04:26:34.680Z,21.00
2023-10-11T04:29:07.990Z,21.00
2023-10-11T04:31:55.937Z,21.00
2023-10-11T04:34:24.959Z,21.00
2023-10-11T04:36:56.886Z,21.00
2023-10-11T04:39:35.822Z,20.90
2023-10-11T04:42:07.841Z,20.90
2023-10-11T04:44:44.163Z,21.00
2023-10-11T04:47:18.669Z,21.00
2023-10-11T04:49:49.788Z,21.00
2023-10-11T04:52:24.399Z,20.90
2023-10-11T04:54:56.805Z,21.00
2023-10-11T04:57:37.624Z,20.90
2023-10-11T05:00:10.349Z,20.90
2023-10-11T05:02:40.401Z,20.90
2023-10-11T05:05:14.228Z,20.90
2023-10-11T05:07:44.508Z,20.90
2023-10-11T05:10:31.468Z,20.90
2023-10-11T05:13:07.254Z,20.90
2023-10-11T05:15:44.530Z,20.90
2023-10-11T05:18:20.081Z,20.90
2023-10-11T05:21:01.683Z,20.90
2023-10-11T05:23:43.883Z,20.90
2023-10-11T05:26:38.309Z,20.90
2023-10-11T05:29:24.728Z,20.90
2023-10-11T05:32:19.724Z,20.90
2023-10-11T05:34:52.374Z,20.80
2023-10-11T05:37:50.645Z,20.90
2023-10-11T05:40:36.804Z,20.90
2023-10-11T05:43:23.304Z,20.90
2023-10-11T05:46:10.957Z,20.90
2023-10-11T05:48:57.168Z,20.80
2023-10-11T05:51:28.216Z,20.80
2023-10-11T05:53:57.528Z,20.80
2023-10-11T05:56:26.294Z,20.80
2023-10-11T05:58:56.425Z,20.80
2023-10-11T06:01:27.366Z,20.70
2023-10-11T06:03:57.470Z,20.70
2023-10-11T06:06:28.652Z,20.70
2023-10-11T06:08:58.550Z,20.70
2023-10-11T06:11:30.991Z,20.70
2023-10-11T06:14:05.655Z,20.70
2023-10-11T06:16:39.757Z,20.70
2023-10-11T06:19:26.057Z,20.70
2023-10-11T06:22:00.152Z,20.70
2023-10-11T06:24:36.740Z,20.70
2023-10-11T06:27:40.297Z,20.70
2023-10-11T06:30:11.413Z,20.70
2023-10-11T06:32:44.059Z,20.80
2023-10-11T06:35:24.651Z,20.70
2023-10-11T06:37:55.330Z,20.80
2023-10-11T06:40:40.476Z,20.70
2023-10-11T06:43:09.747Z,20.70
2023-10-11T06:45:41.465Z,20.80
2023-10-11T06:48:15.207Z,20.80
2023-10-11T06:50:44.073Z,20.80
2023-10-11T06:53:15.002Z,20.80
2023-10-11T06:55:49.324Z,20.80
2023-10-11T06:58:20.531Z,20.80
2023-10-11T07:00:49.742Z,20.80
2023-10-11T07:03:29.513Z,20.80
2023-10-11T07:06:01.184Z,20.90
2023-10-11T07:08:37.333Z,20.90
2023-10-11T07:11:17.615Z,20.90
2023-10-11T07:13:56.202Z,20.90
2023-10-11T07:16:28.992Z,21.00
2023-10-11T07:18:59.986Z,20.90
2023-10-11T07:21:50.030Z,21.00
2023-10-11T07:24:32.991Z,21.00
2023-10-11T07:27:09.968Z,21.00
2023-10-11T07:29:48.007Z,21.10
2023-10-11T07:32:20.489Z,21.10
2023-10-11T07:34:50.393Z,21.20
2023-10-11T07:37:27.378Z,21.20
2023-10-11T07:40:01.486Z,21.20
2023-10-11T07:42:38.586Z,21.30
2023-10-11T07:45:14.423Z,21.30
2023-10-11T07:47:47.268Z,21.30
2023-10-11T07:50:23.692Z,21.40
2023-10-11T07:52:53.541Z,21.40
2023-10-11T07:55:27.456Z,21.50
2023-10-11T07:58:01.315Z,21.50
2023-10-11T08:00:31.947Z,21.60
2023-10-11T08:03:06.044Z,21.60
2023-10-11T08:05:45.893Z,21.70
2023-10-11T08:08:15.708Z,21.70
2023-10-11T08:10:46.728Z,21.70
2023-10-11T08:13:25.193Z,21.80
2023-10-11T08:15:58.938Z,21.90
2023-10-11T08:18:28.636Z,21.90
2023-10-11T08:20:58.776Z,21.90
2023-10-11T08:23:30.808Z,22.00
2023-10-11T08:26:07.045Z,22.00
2023-10-11T08:28:37.485Z,22.10
2023-10-11T08:31:09.693Z,22.20
2023-10-11T08:33:39.142Z,22.20
2023-10-11T08:36:15.504Z,22.30
2023-10-11T08:38:45.599Z,22.40
2023-10-11T08:41:16.884Z,22.40
2023-10-11T08:43:45.849Z,22.50
2023-10-11T08:46:18.892Z,22.60
2023-10-11T08:48:51.280Z,22.60
2023-10-11T08:51:23.933Z,22.70
2023-10-11T08:53:56.310Z,22.70
2023-10-11T08:56:26.225Z,22.80
2023-10-11T08:58:55.557Z,22.80
2023-10-11T09:01:26.317Z,22.90
2023-10-11T09:04:08.148Z,23.00
2023-10-11T09:06:38.326Z,23.00
2023-10-11T09:09:07.154Z,23.10
2023-10-11T09:11:36.262Z,23.20
2023-10-11T09:14:12.754Z,23.30
2023-10-11T09:16:42.151Z,23.30
2023-10-11T09:19:15.241Z,23.40
2023-10-11T09:22:04.118Z,23.50
2023-10-11T09:24:43.382Z,23.60
2023-10-11T09:27:20.691Z,23.70
2023-10-11T09:29:56.359Z,23.80
2023-10-11T09:32:35.432Z,23.90
2023-10-11T09:35:25.213Z,24.10
2023-10-11T09:37:57.333Z,24.20
2023-10-11T09:40:32.229Z,24.40
2023-10-11T09:43:03.267Z,24.60
2023-10-11T09:45:43.342Z,24.70
2023-10-11T09:48:16.728Z,24.90
2023-10-11T09:50:46.425Z,25.10
2023-10-11T09:53:17.212Z,25.20
2023-10-11T09:55:56.812Z,25.40
2023-10-11T09:58:42.623Z,25.60
2023-10-11T10:01:22.324Z,25.70
2023-10-11T10:03:53.992Z,25.80
2023-10-11T10:06:23.872Z,26.00
2023-10-11T10:09:27.998Z,26.10
2023-10-11T10:12:22.833Z,26.20
2023-10-11T10:15:04.727Z,26.20
2023-10-11T10:17:33.958Z,26.30
2023-10-11T10:20:43.725Z,26.30
2023-10-11T10:23:31.010Z,26.30
2023-10-11T10:26:39.936Z,26.30
2023-10-11T10:29:18.732Z,26.30
2023-10-11T10:32:08.803Z,26.20
2023-10-11T10:34:43.449Z,26.20
2023-10-11T10:37:56.500Z,26.10
2023-10-11T10:40:28.473Z,26.10
2023-10-11T10:43:28.997Z,26.10
2023-10-11T10:46:01.020Z,26.00
2023-10-11T10:48:40.742Z,26.00
2023-10-11T10:51:09.382Z,25.90
2023-10-11T10:53:41.718Z,25.80
2023-10-11T10:56:22.020Z,25.80
2023-10-11T10:59:05.462Z,25.70
2023-10-11T11:01:35.390Z,25.70
2023-10-11T11:04:08.972Z,25.60
2023-10-11T11:06:40.305Z,25.60
2023-10-11T11:09:14.772Z,25.60
2023-10-11T11:11:43.234Z,25.50
2023-10-11T11:14:14.634Z,25.50
2023-10-11T11:16:45.776Z,25.40
2023-10-11T11:19:17.747Z,25.40
2023-10-11T11:21:46.907Z,25.40
2023-10-11T11:24:22.218Z,25.30
2023-10-11T11:26:50.205Z,25.30
2023-10-11T11:29:35.926Z,25.30
2023-10-11T11:32:16.052Z,25.30
2023-10-11T11:35:03.701Z,25.30
2023-10-11T11:37:32.315Z,25.20
2023-10-11T11:40:19.712Z,25.20
2023-10-11T11:42:49.092Z,25.20
2023-10-11T11:45:21.112Z,25.20
2023-10-11T11:47:57.809Z,25.20
2023-10-11T11:50:27.992Z,25.20
2023-10-11T11:52:58.783Z,25.20
2023-10-11T11:55:27.778Z,25.20
2023-10-11T11:57:55.645Z,25.10
2023-10-11T12:00:40.892Z,25.10
2023-10-11T12:03:10.465Z,25.10
2023-10-11T12:05:42.284Z,25.10
2023-10-11T12:08:19.929Z,25.10
2023-10-11T12:10:51.499Z,25.10
2023-10-11T12:13:28.234Z,25.10
2023-10-11T12:16:00.581Z,25.10
2023-10-11T12:18:34.512Z,25.10
2023-10-11T12:21:12.543Z,25.10
2023-10-11T12:23:48.406Z,25.10
2023-10-11T12:26:19.288Z,25.10
2023-10-11T12:28:48.952Z,25.10
2023-10-11T12:31:19.238Z,25.10
2023-10-11T12:33:48.752Z,25.10
2023-10-11T12:36:21.692Z,25.10
2023-10-11T12:38:50.998Z,25.10
2023-10-11T12:41:19.772Z,25.10
2023-10-11T12:43:50.663Z,25.10
2023-10-11T12:46:21.399Z,25.10
2023-10-11T12:48:57.300Z,25.20
2023-10-11T12:51:26.934Z,25.20
2023-10-11T12:53:57.238Z,25.20
2023-10-11T12:56:27.604Z,25.20
2023-10-11T12:58:58.299Z,25.20
2023-10-11T13:01:38.322Z,25.20
2023-10-11T13:04:11.001Z,25.20
2023-10-11T13:06:44.825Z,25.20
2023-10-11T13:09:16.585Z,25.30
2023-10-11T13:11:46.813Z,25.30
2023-10-11T13:14:20.137Z,25.30
2023-10-11T13:16:55.415Z,25.30
2023-10-11T13:19:26.114Z,25.30
2023-10-11T13:21:57.121Z,25.30
2023-10-11T13:24:27.744Z,25.30
2023-10-11T13:26:59.330Z,25.30
2023-10-11T13:29:29.155Z,25.30
2023-10-11T13:32:00.549Z,25.30
2023-10-11T13:34:30.965Z,25.40
2023-10-11T13:37:00.022Z,25.40
2023-10-11T13:39:30.595Z,25.40
2023-10-11T13:42:04.496Z,25.40
2023-10-11T13:44:34.211Z,25.40
2023-10-11T13:47:05.373Z,25.40
2023-10-11T13:49:38.108Z,25.40
2023-10-11T13:52:08.369Z,25.50
2023-10-11T13:54:43.837Z,25.50
2023-10-11T13:57:17.445Z,25.50
2023-10-11T13:59:48.792Z,25.50
2023-10-11T14:02:36.036Z,25.50
2023-10-11T14:05:18.604Z,25.50
2023-10-11T14:07:54.770Z,25.50
2023-10-11T14:10:29.423Z,25.50
2023-10-11T14:13:09.750Z,25.50
2023-10-11T14:15:39.433Z,25.50
2023-10-11T14:18:15.746Z,25.50
2023-10-11T14:20:50.722Z,25.50
2023-10-11T14:23:19.465Z,25.50
2023-10-11T14:25:48.298Z,25.50
2023-10-11T14:28:17.005Z,25.50
2023-10-11T14:30:47.815Z,25.50
2023-10-11T14:33:19.518Z,25.50
2023-10-11T14:35:49.086Z,25.50
2023-10-11T14:38:18.746Z,25.50
2023-10-11T14:40:49.798Z,25.50
2023-10-11T14:43:18.901Z,25.50
2023-10-11T14:45:49.614Z,25.50
2023-10-11T14:48:19.998Z,25.50
2023-10-11T14:50:48.713Z,25.50
2023-10-11T14:53:17.783Z,25.50
2023-10-11T14:55:46.553Z,25.50
2023-10-11T14:58:16.526Z,25.50
2023-10-11T15:00:47.629Z,25.50
2023-10-11T15:03:16.798Z,25.40
2023-10-11T15:05:47.012Z,25.40
2023-10-11T15:08:17.357Z,25.40
2023-10-11T15:10:50.078Z,25.40
2023-10-11T15:13:18.886Z,25.40
2023-10-11T15:15:47.922Z,25.40
2023-10-11T15:18:19.400Z,25.40
2023-10-11T15:20:49.630Z,25.40
2023-10-11T15:23:19.154Z,25.30
2023-10-11T15:25:47.876Z,25.30
2023-10-11T15:28:16.763Z,25.30
2023-10-11T15:30:45.783Z,25.30
2023-10-11T15:33:15.984Z,25.20
2023-10-11T15:35:48.584Z,25.20
2023-10-11T15:38:18.870Z,25.20
2023-10-11T15:41:00.662Z,25.20
2023-10-11T15:43:31.213Z,25.20
2023-10-11T15:46:00.058Z,25.20
2023-10-11T15:48:30.912Z,25.20
2023-10-11T15:51:10.234Z,25.10
2023-10-11T15:53:43.811Z,25.10
2023-10-11T15:56:16.313Z,25.10
2023-10-11T15:58:46.292Z,25.10
2023-10-11T16:01:16.032Z,25.10
2023-10-11T16:03:52.570Z,25.10
2023-10-11T16:06:26.099Z,25.00
2023-10-11T16:08:56.777Z,25.00
2023-10-11T16:11:25.778Z,25.00
2023-10-11T16:13:54.507Z,25.00
2023-10-11T16:16:23.284Z,25.00
2023-10-11T16:18:53.235Z,24.90
2023-10-11T16:21:25.141Z,24.90
2023-10-11T16:23:55.820Z,24.90
2023-10-11T16:26:24.569Z,24.90
2023-10-11T16:28:53.730Z,24.90
2023-10-11T16:31:22.992Z,24.90
2023-10-11T16:33:54.094Z,24.90
2023-10-11T16:36:23.084Z,24.90
2023-10-11T16:38:51.800Z,24.80
2023-10-11T16:41:23.227Z,24.80
2023-10-11T16:43:52.435Z,24.80
2023-10-11T16:46:30.851Z,24.80
2023-10-11T16:49:02.276Z,24.80
2023-10-11T16:51:31.244Z,24.80
2023-10-11T16:54:00.478Z,24.80
2023-10-11T16:56:33.653Z,24.80
2023-10-11T16:59:02.580Z,24.80
2023-10-11T17:01:31.558Z,24.70
2023-10-11T17:04:00.553Z,24.70
2023-10-11T17:06:29.441Z,24.70
2023-10-11T17:08:59.190Z,24.70
2023-10-11T17:11:31.255Z,24.70
2023-10-11T17:14:00.016Z,24.70
2023-10-11T17:16:29.168Z,24.70
2023-10-11T17:18:57.982Z,24.70
2023-10-11T17:21:26.833Z,24.70
2023-10-11T17:23:55.590Z,24.70
2023-10-11T17:26:25.583Z,24.70
2023-10-11T17:28:57.090Z,24.60
2023-10-11T17:31:27.968Z,24.60
2023-10-11T17:33:56.871Z,24.60
2023-10-11T17:36:27.639Z,24.60
2023-10-11T17:38:56.705Z,24.60
2023-10-11T17:41:26.423Z,24.60
2023-10-11T17:43:56.623Z,24.60
2023-10-11T17:46:26.360Z,24.60
2023-10-11T17:48:55.974Z,24.60
2023-10-11T17:51:28.962Z,24.60
2023-10-11T17:54:01.032Z,24.50
2023-10-11T17:56:29.823Z,24.50
2023-10-11T17:59:03.433Z,24.50
2023-10-11T18:01:32.290Z,24.50
2023-10-11T18:04:06.613Z,24.50
2023-10-11T18:06:36.848Z,24.50
2023-10-11T18:09:06.695Z,24.50
2023-10-11T18:11:35.489Z,24.50
2023-10-11T18:14:06.028Z,24.50
2023-10-11T18:16:34.798Z,24.40
2023-10-11T18:19:07.466Z,24.40
2023-10-11T18:21:36.375Z,24.40
2023-10-11T18:24:05.767Z,24.40
2023-10-11T18:26:34.778Z,24.40
2023-10-11T18:29:05.225Z,24.40
2023-10-11T18:31:34.280Z,24.40
2023-10-11T18:34:03.915Z,24.40
2023-10-11T18:36:32.814Z,24.30
2023-10-11T18:39:02.049Z,24.30
2023-10-11T18:41:31.157Z,24.30
2023-10-11T18:43:59.857Z,24.30
2023-10-11T18:46:30.328Z,24.30
2023-10-11T18:48:59.683Z,24.30
2023-10-11T18:51:29.630Z,24.30
2023-10-11T18:54:00.407Z,24.20
2023-10-11T18:56:29.220Z,24.20
2023-10-11T18:58:59.225Z,24.20
2023-10-11T19:01:29.657Z,24.20
2023-10-11T19:03:58.451Z,24.20
2023-10-11T19:06:28.344Z,24.20
2023-10-11T19:08:57.834Z,24.10
2023-10-11T19:11:29.372Z,24.10
2023-10-11T19:13:58.092Z,24.10
2023-10-11T19:16:27.852Z,24.10
2023-10-11T19:18:58.199Z,24.10
2023-10-11T19:21:27.155Z,24.10
2023-10-11T19:23:57.087Z,24.00
2023-10-11T19:26:26.450Z,24.00
2023-10-11T19:29:00.051Z,24.00
2023-10-11T19:31:29.861Z,24.00
2023-10-11T19:34:00.044Z,24.00
2023-10-11T19:36:28.942Z,24.00
2023-10-11T19:38:57.631Z,24.00
2023-10-11T19:41:26.471Z,23.90
2023-10-11T19:43:55.175Z,23.90
2023-10-11T19:46:24.116Z,23.90
2023-10-11T19:48:53.880Z,23.90
2023-10-11T19:51:24.091Z,23.80
2023-10-11T19:53:52.770Z,23.80
2023-10-11T19:56:21.897Z,23.80
2023-10-11T19:58:51.613Z,23.80
2023-10-11T20:01:22.755Z,23.80
2023-10-11T20:03:57.647Z,23.80
2023-10-11T20:06:28.101Z,23.70
2023-10-11T20:08:56.855Z,23.70
2023-10-11T20:11:25.718Z,23.70
2023-10-11T20:13:54.405Z,23.70
2023-10-11T20:16:23.102Z,23.70
2023-10-11T20:18:51.938Z,23.70
2023-10-11T20:21:21.642Z,23.60
2023-10-11T20:23:55.611Z,23.60
2023-10-11T20:26:25.975Z,23.60
2023-10-11T20:28:58.274Z,23.60
2023-10-11T20:31:27.443Z,23.60
2023-10-11T20:33:58.741Z,23.60
2023-10-11T20:36:28.313Z,23.60
2023-10-11T20:38:58.692Z,23.60
2023-10-11T20:41:27.324Z,23.60
2023-10-11T20:43:56.186Z,23.60
2023-10-11T20:46:25.259Z,23.60
2023-10-11T20:48:56.219Z,23.60
2023-10-11T20:51:25.583Z,23.60
2023-10-11T20:53:56.109Z,23.60
2023-10-11T20:56:29.202Z,23.60
2023-10-11T20:59:00.345Z,23.60
2023-10-11T21:01:29.413Z,23.70
2023-10-11T21:03:58.683Z,23.70
2023-10-11T21:06:27.673Z,23.70
2023-10-11T21:08:57.485Z,23.70
2023-10-11T21:11:29.043Z,23.70
2023-10-11T21:13:57.710Z,23.70
2023-10-11T21:16:26.566Z,23.70
2023-10-11T21:18:57.216Z,23.70
2023-10-11T21:21:29.587Z,23.70
2023-10-11T21:23:58.977Z,23.70
2023-10-11T21:26:32.213Z,23.80
2023-10-11T21:29:00.950Z,23.80
2023-10-11T21:31:30.891Z,23.80
2023-10-11T21:33:59.668Z,23.80
2023-10-11T21:36:28.452Z,23.80
2023-10-11T21:38:57.253Z,23.80
2023-10-11T21:41:26.014Z,23.80
2023-10-11T21:43:56.069Z,23.80
2023-10-11T21:46:25.820Z,23.80
2023-10-11T21:48:55.109Z,23.90
2023-10-11T21:51:26.068Z,23.90
2023-10-11T21:53:55.503Z,23.90
2023-10-11T21:56:24.203Z,23.90
2023-10-11T21:58:52.925Z,23.90
2023-10-11T22:01:25.995Z,24.00
2023-10-11T22:03:58.390Z,23.90
2023-10-11T22:06:27.711Z,24.00
2023-10-11T22:08:56.753Z,24.00
2023-10-11T22:11:28.267Z,24.00
2023-10-11T22:13:58.307Z,24.00
2023-10-11T22:16:28.432Z,24.00
2023-10-11T22:19:00.169Z,24.00
2023-10-11T22:21:29.191Z,24.00
2023-10-11T22:23:57.931Z,24.10
2023-10-11T22:26:27.635Z,24.10
2023-10-11T22:28:56.574Z,24.10
2023-10-11T22:31:25.669Z,24.10
2023-10-11T22:33:56.688Z,24.10
2023-10-11T22:36:27.999Z,24.10
2023-10-11T22:38:58.902Z,24.10
2023-10-11T22:41:28.000Z,24.10
2023-10-11T22:43:56.817Z,24.20
2023-10-11T22:46:26.208Z,24.20
2023-10-11T22:48:56.493Z,24.20
2023-10-11T22:51:28.683Z,24.20
2023-10-11T22:54:01.921Z,24.20
2023-10-11T22:56:32.306Z,24.20
2023-10-11T22:59:05.570Z,24.20
2023-10-11T23:01:38.413Z,24.20
2023-10-11T23:04:09.848Z,24.20
2023-10-11T23:06:38.684Z,24.20
2023-10-11T23:09:07.615Z,24.20
2023-10-11T23:11:37.781Z,24.30
2023-10-11T23:14:06.914Z,24.30
2023-10-11T23:16:37.101Z,24.20
2023-10-11T23:22:02.663Z,24.20
2023-10-11T23:24:34.714Z,24.20
2023-10-11T23:27:03.528Z,24.30
2023-10-11T23:29:35.126Z,24.30
2023-10-11T23:32:05.004Z,24.20
2023-10-11T23:34:34.726Z,24.20
2023-10-11T23:37:06.403Z,24.30
2023-10-11T23:39:35.402Z,24.20
2023-10-11T23:42:15.767Z,24.30
2023-10-11T23:44:45.792Z,24.30
2023-10-11T23:47:23.927Z,24.30
2023-10-11T23:49:57.107Z,24.20
2023-10-11T23:52:29.782Z,24.30
2023-10-11T23:55:07.454Z,24.30
2023-10-11T23:57:47.224Z,24.20
